createdAt,value
2018-09-02T00:01:52.437Z,100443.16
2018-09-02T00:04:21.122Z,100437.44
2018-09-02T00:06:49.797Z,100424.12
2018-09-02T00:09:18.497Z,100423.37
2018-09-02T00:11:47.318Z,100413.66
2018-09-02T00:14:16.028Z,100426.59
2018-09-02T00:16:44.774Z,100416.33
2018-09-02T00:19:13.486Z,100437.44
2018-09-02T00:21:42.101Z,100427.37
2018-09-02T00:24:10.777Z,100431.64
2018-09-02T00:26:39.426Z,100423.09
2018-09-02T00:29:08.138Z,100419.96
2018-09-02T00:31:36.748Z,100423.41
2018-09-02T00:34:05.422Z,100426.84
2018-09-02T00:36:34.093Z,100423.16
2018-09-02T00:39:02.889Z,100424.96
2018-09-02T00:41:31.614Z,100420.03
2018-09-02T00:44:00.373Z,100418.14
2018-09-02T00:46:29.070Z,100425.58
2018-09-02T00:48:58.846Z,100436.23
2018-09-02T00:51:27.794Z,100443.08
2018-09-02T00:53:56.994Z,100438.53
2018-09-02T00:56:25.846Z,100441.97
2018-09-02T00:58:54.550Z,100451.13
2018-09-02T01:01:23.240Z,100454.58
2018-09-02T01:03:52.065Z,100461.23
2018-09-02T01:06:22.693Z,100469.15
2018-09-02T01:08:51.314Z,100469.48
2018-09-02T01:11:20.062Z,100471.09
2018-09-02T01:13:48.830Z,100466.08
2018-09-02T01:16:17.772Z,100466.69
2018-09-02T01:18:46.450Z,100466.52
2018-09-02T01:21:15.095Z,100471.77
2018-09-02T01:23:43.801Z,100469.41
2018-09-02T01:26:12.544Z,100463.02
2018-09-02T01:28:41.338Z,100457.21
2018-09-02T01:31:10.006Z,100464.94
2018-09-02T01:33:39.634Z,100460.94
2018-09-02T01:36:08.409Z,100456.55
2018-09-02T01:38:37.264Z,100452.64
2018-09-02T01:41:06.515Z,100457.58
2018-09-02T01:43:35.266Z,100448.17
2018-09-02T01:46:03.888Z,100453.58
2018-09-02T01:48:32.682Z,100452.34
2018-09-02T01:51:01.478Z,100453.28
2018-09-02T01:53:30.424Z,100448.81
2018-09-02T01:55:59.238Z,100451.86
2018-09-02T01:58:27.805Z,100438.62
2018-09-02T02:00:56.521Z,100435.88
2018-09-02T02:03:25.802Z,100429.68
2018-09-02T02:05:54.527Z,100429.12
2018-09-02T02:08:23.224Z,100417.99
2018-09-02T02:10:53.029Z,100411.72
2018-09-02T02:13:21.630Z,100417.44
2018-09-02T02:15:50.392Z,100417.05
2018-09-02T02:18:19.304Z,100415.63
2018-09-02T02:20:48.123Z,100419.04
2018-09-02T02:23:17.522Z,100413.23
2018-09-02T02:25:46.930Z,100419.34
2018-09-02T02:28:15.597Z,100428.89
2018-09-02T02:30:44.494Z,100427.39
2018-09-02T02:33:14.339Z,100419.22
2018-09-02T02:35:43.825Z,100418.66
2018-09-02T02:38:12.648Z,100417.03
2018-09-02T02:40:41.420Z,100399.63
2018-09-02T02:43:10.322Z,100413.72
2018-09-02T02:45:39.113Z,100414.11
2018-09-02T02:48:08.761Z,100410.97
2018-09-02T02:50:37.457Z,100404.78
2018-09-02T02:53:06.723Z,100415.45
2018-09-02T02:55:36.249Z,100408.30
2018-09-02T02:58:05.166Z,100406.59
2018-09-02T03:00:33.918Z,100402.89
2018-09-02T03:03:02.774Z,100396.52
2018-09-02T03:05:32.427Z,100396.99
2018-09-02T03:08:01.218Z,100393.94
2018-09-02T03:10:30.001Z,100396.14
2018-09-02T03:12:58.630Z,100394.72
2018-09-02T03:15:27.329Z,100394.80
2018-09-02T03:17:56.055Z,100395.27
2018-09-02T03:20:24.999Z,100394.89
2018-09-02T03:22:53.885Z,100403.83
2018-09-02T03:25:22.541Z,100399.83
2018-09-02T03:27:51.470Z,100394.11
2018-09-02T03:30:20.179Z,100396.31
2018-09-02T03:32:48.899Z,100396.01
2018-09-02T03:35:17.829Z,100392.87
2018-09-02T03:37:46.524Z,100397.34
2018-09-02T03:40:15.423Z,100392.95
2018-09-02T03:42:44.109Z,100388.74
2018-09-02T03:45:12.782Z,100396.35
2018-09-02T03:47:41.477Z,100395.61
2018-09-02T03:50:10.170Z,100397.50
2018-09-02T03:52:39.794Z,100393.20
2018-09-02T03:55:08.544Z,100392.91
2018-09-02T03:57:38.270Z,100392.30
2018-09-02T04:00:07.599Z,100396.30
2018-09-02T04:02:37.305Z,100391.14
2018-09-02T04:05:06.617Z,100398.78
2018-09-02T04:07:35.386Z,100387.73
2018-09-02T04:10:04.106Z,100383.34
2018-09-02T04:12:33.629Z,100385.71
2018-09-02T04:15:02.434Z,100382.36
2018-09-02T04:17:31.178Z,100386.52
2018-09-02T04:20:01.219Z,100382.78
2018-09-02T04:22:29.853Z,100373.70
2018-09-02T04:24:58.549Z,100378.17
2018-09-02T04:27:28.298Z,100369.33
2018-09-02T04:29:57.002Z,100360.55
2018-09-02T04:32:25.895Z,100363.47
2018-09-02T04:34:54.555Z,100367.66
2018-09-02T04:37:23.256Z,100371.48
2018-09-02T04:39:52.074Z,100374.19
2018-09-02T04:42:20.756Z,100375.53
2018-09-02T04:44:49.359Z,100375.58
2018-09-02T04:47:18.031Z,100382.67
2018-09-02T04:49:46.692Z,100389.34
2018-09-02T04:52:15.758Z,100390.71
2018-09-02T04:54:44.470Z,100391.49
2018-09-02T04:57:13.215Z,100393.80
2018-09-02T04:59:41.818Z,100391.22
2018-09-02T05:02:10.677Z,100390.88
2018-09-02T05:04:39.292Z,100394.42
2018-09-02T05:07:07.902Z,100397.56
2018-09-02T05:09:36.597Z,100394.44
2018-09-02T05:12:05.329Z,100394.38
2018-09-02T05:14:33.948Z,100390.09
2018-09-02T05:17:02.953Z,100397.73
2018-09-02T05:19:32.201Z,100383.32
2018-09-02T05:22:00.975Z,100387.52
2018-09-02T05:24:29.742Z,100391.63
2018-09-02T05:26:58.470Z,100388.59
2018-09-02T05:29:27.204Z,100382.75
2018-09-02T05:31:56.574Z,100383.14
2018-09-02T05:34:26.317Z,100385.31
2018-09-02T05:36:55.132Z,100382.08
2018-09-02T05:39:24.176Z,100380.61
2018-09-02T05:41:52.879Z,100383.91
2018-09-02T05:44:21.583Z,100384.58
2018-09-02T05:46:50.206Z,100382.55
2018-09-02T05:49:18.950Z,100383.45
2018-09-02T05:51:48.161Z,100368.91
2018-09-02T05:54:17.049Z,100373.43
2018-09-02T05:56:45.814Z,100373.27
2018-09-02T05:59:15.073Z,100376.50
2018-09-02T06:01:43.898Z,100371.61
2018-09-02T06:04:12.642Z,100372.36
2018-09-02T06:06:42.373Z,100372.61
2018-09-02T06:09:11.179Z,100371.44
2018-09-02T06:11:40.110Z,100365.20
2018-09-02T06:14:09.501Z,100361.28
2018-09-02T06:16:38.371Z,100362.17
2018-09-02T06:19:07.038Z,100359.62
2018-09-02T06:21:35.732Z,100366.30
2018-09-02T06:24:04.350Z,100372.80
2018-09-02T06:26:33.229Z,100382.51
2018-09-02T06:29:01.818Z,100390.50
2018-09-02T06:31:30.505Z,100394.22
2018-09-02T06:33:59.177Z,100391.39
2018-09-02T06:36:27.788Z,100385.80
2018-09-02T06:38:56.695Z,100380.14
2018-09-02T06:41:25.383Z,100388.73
2018-09-02T06:43:54.057Z,100393.55
2018-09-02T06:46:22.674Z,100401.78
2018-09-02T06:48:51.533Z,100406.97
2018-09-02T06:51:20.338Z,100409.94
2018-09-02T06:53:49.013Z,100418.39
2018-09-02T06:56:17.623Z,100419.79
2018-09-02T06:58:47.463Z,100429.59
2018-09-02T07:01:16.090Z,100426.56
2018-09-02T07:03:44.781Z,100428.28
2018-09-02T07:06:13.435Z,100429.16
2018-09-02T07:08:42.802Z,100429.03
2018-09-02T07:11:11.475Z,100431.02
2018-09-02T07:13:40.289Z,100436.39
2018-09-02T07:16:09.311Z,100434.94
2018-09-02T07:18:38.103Z,100432.28
2018-09-02T07:21:06.804Z,100435.84
2018-09-02T07:23:35.541Z,100438.75
2018-09-02T07:26:04.549Z,100436.55
2018-09-02T07:28:34.240Z,100438.62
2018-09-02T07:31:03.042Z,100444.98
2018-09-02T07:33:31.863Z,100443.03
2018-09-02T07:36:00.714Z,100440.56
2018-09-02T07:38:30.551Z,100447.63
2018-09-02T07:40:59.189Z,100448.25
2018-09-02T07:43:27.842Z,100450.33
2018-09-02T07:45:56.746Z,100449.72
2018-09-02T07:48:31.729Z,100454.48
2018-09-02T07:51:00.576Z,100458.77
2018-09-02T07:53:29.261Z,100464.48
2018-09-02T07:55:57.981Z,100459.83
2018-09-02T07:58:26.951Z,100467.42
2018-09-02T08:00:55.733Z,100466.07
2018-09-02T08:03:24.892Z,100461.30
2018-09-02T08:05:53.641Z,100464.64
2018-09-02T08:08:22.278Z,100465.13
2018-09-02T08:10:51.870Z,100461.85
2018-09-02T08:13:20.552Z,100466.13
2018-09-02T08:15:49.410Z,100459.25
2018-09-02T08:18:18.201Z,100458.03
2018-09-02T08:20:46.870Z,100456.56
2018-09-02T08:23:15.838Z,100458.89
2018-09-02T08:25:45.437Z,100468.19
2018-09-02T08:28:21.170Z,100471.76
2018-09-02T08:30:50.108Z,100472.13
2018-09-02T08:33:19.343Z,100479.81
2018-09-02T08:35:48.029Z,100486.56
2018-09-02T08:38:17.862Z,100489.73
2018-09-02T08:40:46.880Z,100488.27
2018-09-02T08:43:15.508Z,100483.12
2018-09-02T08:45:44.231Z,100491.56
2018-09-02T08:48:13.018Z,100495.80
2018-09-02T08:50:41.826Z,100494.32
2018-09-02T08:53:11.513Z,100496.02
2018-09-02T08:55:40.467Z,100494.19
2018-09-02T08:58:10.291Z,100496.50
2018-09-02T09:00:39.173Z,100488.30
2018-09-02T09:03:07.962Z,100481.09
2018-09-02T09:05:37.590Z,100483.17
2018-09-02T09:08:07.809Z,100483.56
2018-09-02T09:10:36.765Z,100477.19
2018-09-02T09:13:06.469Z,100469.22
2018-09-02T09:15:35.376Z,100474.47
2018-09-02T09:18:04.489Z,100480.69
2018-09-02T09:20:33.371Z,100485.02
2018-09-02T09:23:02.178Z,100488.94
2018-09-02T09:25:30.778Z,100480.36
2018-09-02T09:27:59.689Z,100467.03
2018-09-02T09:30:28.556Z,100470.75
2018-09-02T09:32:57.590Z,100478.33
2018-09-02T09:35:26.357Z,100481.32
2018-09-02T09:37:56.055Z,100483.66
2018-09-02T09:40:25.153Z,100474.92
2018-09-02T09:42:55.890Z,100467.96
2018-09-02T09:45:24.585Z,100471.34
2018-09-02T09:47:54.114Z,100470.11
2018-09-02T09:50:22.898Z,100475.19
2018-09-02T09:52:51.902Z,100479.09
2018-09-02T09:55:20.877Z,100477.84
2018-09-02T09:57:49.617Z,100472.68
2018-09-02T10:00:24.730Z,100476.47
2018-09-02T10:02:53.605Z,100478.44
2018-09-02T10:05:22.368Z,100476.37
2018-09-02T10:07:51.264Z,100473.05
2018-09-02T10:10:19.908Z,100465.25
2018-09-02T10:12:49.615Z,100463.76
2018-09-02T10:15:18.314Z,100458.38
2018-09-02T10:17:47.084Z,100458.66
2018-09-02T10:20:15.765Z,100462.66
2018-09-02T10:22:44.474Z,100453.52
2018-09-02T10:25:13.911Z,100453.73
2018-09-02T10:27:42.693Z,100457.34
2018-09-02T10:30:11.437Z,100454.09
2018-09-02T10:32:40.546Z,100451.63
2018-09-02T10:35:09.261Z,100449.88
2018-09-02T10:37:38.863Z,100451.44
2018-09-02T10:40:07.757Z,100456.38
2018-09-02T10:42:38.011Z,100446.31
2018-09-02T10:45:07.222Z,100443.66
2018-09-02T10:47:36.378Z,100441.02
2018-09-02T10:50:05.555Z,100442.82
2018-09-02T10:52:34.781Z,100442.03
2018-09-02T10:55:03.467Z,100436.48
2018-09-02T10:57:32.387Z,100428.75
2018-09-02T11:00:01.583Z,100430.84
2018-09-02T11:02:30.383Z,100427.80
2018-09-02T11:04:59.175Z,100430.31
2018-09-02T11:07:28.162Z,100426.41
2018-09-02T11:09:57.004Z,100423.52
2018-09-02T11:12:25.713Z,100421.04
2018-09-02T11:14:54.388Z,100417.83
2018-09-02T11:17:23.336Z,100415.74
2018-09-02T11:19:52.259Z,100410.63
2018-09-02T11:22:20.909Z,100410.88
2018-09-02T11:24:49.747Z,100404.27
2018-09-02T11:27:18.880Z,100411.08
2018-09-02T11:29:47.953Z,100405.13
2018-09-02T11:32:17.006Z,100400.72
2018-09-02T11:34:47.881Z,100397.79
2018-09-02T11:37:17.388Z,100387.89
2018-09-02T11:39:46.585Z,100393.63
2018-09-02T11:42:15.965Z,100383.99
2018-09-02T11:44:44.599Z,100387.11
2018-09-02T11:47:13.453Z,100388.48
2018-09-02T11:49:42.282Z,100391.42
2018-09-02T11:52:11.266Z,100392.28
2018-09-02T11:54:39.941Z,100387.77
2018-09-02T11:57:08.703Z,100392.71
2018-09-02T11:59:37.617Z,100384.45
2018-09-02T12:02:07.293Z,100385.75
2018-09-02T12:04:37.089Z,100388.23
2018-09-02T12:07:05.831Z,100390.02
2018-09-02T12:09:35.510Z,100388.41
2018-09-02T12:12:04.401Z,100391.58
2018-09-02T12:14:33.342Z,100388.23
2018-09-02T12:17:02.001Z,100394.02
2018-09-02T12:19:30.826Z,100389.25
2018-09-02T12:21:59.534Z,100387.06
2018-09-02T12:24:28.295Z,100388.61
2018-09-02T12:26:57.618Z,100380.09
2018-09-02T12:29:26.512Z,100380.97
2018-09-02T12:31:55.274Z,100379.75
2018-09-02T12:34:24.102Z,100380.09
2018-09-02T12:36:52.910Z,100369.40
2018-09-02T12:39:21.572Z,100382.16
2018-09-02T12:41:50.662Z,100374.47
2018-09-02T12:44:19.953Z,100376.27
2018-09-02T12:46:48.888Z,100374.28
2018-09-02T12:49:17.722Z,100378.48
2018-09-02T12:51:46.487Z,100381.84
2018-09-02T12:54:16.249Z,100376.64
2018-09-02T12:56:45.046Z,100367.48
2018-09-02T12:59:13.865Z,100367.53
2018-09-02T13:01:42.582Z,100368.70
2018-09-02T13:04:11.629Z,100370.41
2018-09-02T13:06:40.403Z,100367.17
2018-09-02T13:09:10.025Z,100358.33
2018-09-02T13:11:39.473Z,100363.41
2018-09-02T13:14:08.170Z,100350.30
2018-09-02T13:16:36.996Z,100344.63
2018-09-02T13:19:06.216Z,100341.03
2018-09-02T13:21:34.828Z,100342.68
2018-09-02T13:24:03.602Z,100339.52
2018-09-02T13:26:32.594Z,100334.46
2018-09-02T13:29:01.949Z,100326.54
2018-09-02T13:31:31.057Z,100329.70
2018-09-02T13:33:59.931Z,100322.55
2018-09-02T13:36:29.989Z,100325.48
2018-09-02T13:38:58.715Z,100329.44
2018-09-02T13:41:27.913Z,100320.28
2018-09-02T13:43:56.712Z,100325.70
2018-09-02T13:46:25.658Z,100323.30
2018-09-02T13:48:54.393Z,100314.82
2018-09-02T13:51:23.283Z,100314.88
2018-09-02T13:53:51.898Z,100320.27
2018-09-02T13:56:20.521Z,100316.96
2018-09-02T13:58:49.376Z,100323.64
2018-09-02T14:01:18.150Z,100320.91
2018-09-02T14:03:46.899Z,100329.34
2018-09-02T14:06:15.633Z,100322.06
2018-09-02T14:08:44.387Z,100327.72
2018-09-02T14:11:13.445Z,100323.42
2018-09-02T14:13:42.066Z,100322.16
2018-09-02T14:16:10.849Z,100317.66
2018-09-02T14:18:39.889Z,100316.45
2018-09-02T14:21:08.528Z,100319.75
2018-09-02T14:28:46.543Z,100320.39
2018-09-02T14:31:15.291Z,100317.23
2018-09-02T14:33:43.989Z,100321.33
2018-09-02T14:36:13.145Z,100310.34
2018-09-02T14:38:42.097Z,100309.90
2018-09-02T14:41:10.963Z,100314.21
2018-09-02T14:43:40.152Z,100317.82
2018-09-02T14:46:09.198Z,100317.27
2018-09-02T14:48:37.969Z,100322.92
2018-09-02T14:51:06.897Z,100318.56
2018-09-02T14:53:35.509Z,100313.77
2018-09-02T14:56:04.313Z,100318.05
2018-09-02T14:58:33.100Z,100323.58
2018-09-02T15:01:01.975Z,100323.75
2018-09-02T15:03:30.854Z,100330.98
2018-09-02T15:06:01.451Z,100339.80
2018-09-02T15:08:30.154Z,100340.42
2018-09-02T15:10:58.889Z,100336.24
2018-09-02T15:13:27.566Z,100339.16
2018-09-02T15:15:56.450Z,100343.50
2018-09-02T15:18:25.220Z,100346.08
2018-09-02T15:20:54.162Z,100341.83
2018-09-02T15:23:23.360Z,100345.63
2018-09-02T15:25:53.126Z,100347.61
2018-09-02T15:28:21.800Z,100349.23
2018-09-02T15:30:53.425Z,100345.22
2018-09-02T15:33:22.273Z,100355.13
2018-09-02T15:35:51.107Z,100358.21
2018-09-02T15:38:19.762Z,100358.29
2018-09-02T15:40:48.934Z,100366.45
2018-09-02T15:43:17.669Z,100369.28
2018-09-02T15:45:46.489Z,100369.19
2018-09-02T15:48:15.870Z,100366.73
2018-09-02T15:50:46.075Z,100368.75
2018-09-02T15:53:17.242Z,100369.39
2018-09-02T15:55:45.938Z,100360.42
2018-09-02T15:58:15.456Z,100369.83
2018-09-02T16:00:44.858Z,100363.31
2018-09-02T16:03:15.296Z,100364.21
2018-09-02T16:05:45.400Z,100366.44
2018-09-02T16:08:14.383Z,100363.27
2018-09-02T16:10:46.917Z,100359.50
2018-09-02T16:13:18.197Z,100360.42
2018-09-02T16:15:47.182Z,100361.63
2018-09-02T16:18:17.052Z,100360.77
2018-09-02T16:20:45.825Z,100366.60
2018-09-02T16:23:14.733Z,100369.42
2018-09-02T16:25:44.441Z,100367.92
2018-09-02T16:28:13.582Z,100361.16
2018-09-02T16:30:42.568Z,100353.75
2018-09-02T16:33:11.366Z,100347.78
2018-09-02T16:35:40.263Z,100358.95
2018-09-02T16:38:09.257Z,100351.20
2018-09-02T16:40:38.829Z,100352.34
2018-09-02T16:43:09.085Z,100353.94
2018-09-02T16:45:37.989Z,100350.02
2018-09-02T16:48:07.198Z,100343.16
2018-09-02T16:50:36.523Z,100342.14
2018-09-02T16:53:05.327Z,100341.44
2018-09-02T16:55:33.963Z,100341.63
2018-09-02T16:58:02.830Z,100333.22
2018-09-02T17:00:31.646Z,100337.64
2018-09-02T17:03:00.469Z,100331.47
2018-09-02T17:05:29.351Z,100333.11
2018-09-02T17:07:58.042Z,100335.92
2018-09-02T17:10:27.680Z,100330.53
2018-09-02T17:12:56.728Z,100331.75
2018-09-02T17:15:25.538Z,100339.98
2018-09-02T17:17:54.276Z,100344.97
2018-09-02T17:20:27.951Z,100349.11
2018-09-02T17:23:11.783Z,100359.66
2018-09-02T17:25:41.486Z,100363.73
2018-09-02T17:28:10.719Z,100361.90
2018-09-02T17:30:41.362Z,100360.02
2018-09-02T17:33:11.470Z,100365.22
2018-09-02T17:35:40.264Z,100363.83
2018-09-02T17:38:09.083Z,100359.27
2018-09-02T17:40:37.804Z,100355.83
2018-09-02T17:43:06.803Z,100357.02
2018-09-02T17:45:35.432Z,100348.13
2018-09-02T17:48:04.097Z,100352.22
2018-09-02T17:50:32.994Z,100349.67
2018-09-02T17:53:01.741Z,100349.59
2018-09-02T17:55:31.257Z,100344.95
2018-09-02T17:58:00.336Z,100341.94
2018-09-02T18:00:32.917Z,100344.38
2018-09-02T18:03:02.349Z,100342.80
2018-09-02T18:05:31.142Z,100342.30
2018-09-02T18:07:59.835Z,100332.28
2018-09-02T18:10:28.518Z,100337.30
2018-09-02T18:12:57.335Z,100332.52
2018-09-02T18:15:25.990Z,100335.70
2018-09-02T18:17:54.934Z,100344.02
2018-09-02T18:20:23.950Z,100346.83
2018-09-02T18:22:56.738Z,100342.75
2018-09-02T18:25:27.418Z,100341.64
2018-09-02T18:28:01.100Z,100346.30
2018-09-02T18:30:34.938Z,100341.53
2018-09-02T18:33:03.884Z,100348.86
2018-09-02T18:35:33.076Z,100346.75
2018-09-02T18:38:01.883Z,100349.80
2018-09-02T18:40:30.545Z,100352.48
2018-09-02T18:42:59.627Z,100349.97
2018-09-02T18:45:29.473Z,100345.23
2018-09-02T18:47:59.367Z,100345.48
2018-09-02T18:50:28.554Z,100352.81
2018-09-02T18:52:57.350Z,100357.35
2018-09-02T18:55:26.143Z,100347.47
2018-09-02T18:57:55.165Z,100354.43
2018-09-02T19:00:25.386Z,100351.98
2018-09-02T19:02:55.769Z,100352.47
2018-09-02T19:05:24.912Z,100357.12
2018-09-02T19:07:55.047Z,100356.61
2018-09-02T19:10:24.532Z,100358.20
2018-09-02T19:12:53.357Z,100350.84
2018-09-02T19:15:22.438Z,100355.25
2018-09-02T19:17:52.168Z,100351.38
2018-09-02T19:20:21.353Z,100357.25
2018-09-02T19:22:50.665Z,100354.69
2018-09-02T19:25:19.313Z,100353.55
2018-09-02T19:27:48.020Z,100350.61
2018-09-02T19:30:17.123Z,100356.48
2018-09-02T19:32:46.478Z,100352.08
2018-09-02T19:35:15.643Z,100351.47
2018-09-02T19:37:44.366Z,100348.81
2018-09-02T19:40:13.588Z,100354.68
2018-09-02T19:42:43.927Z,100353.42
2018-09-02T19:45:13.709Z,100351.49
2018-09-02T19:47:42.371Z,100348.69
2018-09-02T19:50:11.825Z,100348.80
2018-09-02T19:52:41.179Z,100346.11
2018-09-02T19:55:11.092Z,100349.91
2018-09-02T19:57:39.905Z,100356.63
2018-09-02T20:00:10.692Z,100354.30
2018-09-02T20:02:39.413Z,100353.05
2018-09-02T20:05:09.265Z,100355.50
2018-09-02T20:07:38.113Z,100363.10
2018-09-02T20:10:08.226Z,100372.73
2018-09-02T20:12:36.914Z,100372.36
2018-09-02T20:15:06.212Z,100363.84
2018-09-02T20:17:36.028Z,100361.14
2018-09-02T20:20:04.724Z,100358.58
2018-09-02T20:22:34.254Z,100360.65
2018-09-02T20:25:02.957Z,100358.80
2018-09-02T20:27:32.149Z,100361.38
2018-09-02T20:30:01.705Z,100358.80
2018-09-02T20:32:31.077Z,100360.52
2018-09-02T20:34:59.997Z,100362.84
2018-09-02T20:37:28.923Z,100355.41
2018-09-02T20:39:57.763Z,100351.50
2018-09-02T20:42:28.370Z,100347.84
2018-09-02T20:44:57.319Z,100349.66
2018-09-02T20:47:27.446Z,100345.98
2018-09-02T20:49:56.399Z,100340.00
2018-09-02T20:52:29.683Z,100339.03
2018-09-02T20:54:58.385Z,100341.13
2018-09-02T20:57:26.986Z,100331.70
2018-09-02T20:59:55.633Z,100331.95
2018-09-02T21:02:24.507Z,100335.25
2018-09-02T21:04:53.750Z,100327.19
2018-09-02T21:07:23.389Z,100330.85
2018-09-02T21:09:53.025Z,100330.47
2018-09-02T21:12:22.299Z,100320.34
2018-09-02T21:14:51.043Z,100321.42
2018-09-02T21:17:21.035Z,100321.17
2018-09-02T21:19:50.353Z,100318.12
2018-09-02T21:22:19.118Z,100317.64
2018-09-02T21:24:48.003Z,100309.83
2018-09-02T21:27:17.693Z,100306.36
2018-09-02T21:29:46.506Z,100309.59
2018-09-02T21:32:15.272Z,100311.55
2018-09-02T21:34:44.018Z,100306.03
2018-09-02T21:37:12.866Z,100306.28
2018-09-02T21:39:41.529Z,100301.41
2018-09-02T21:42:11.613Z,100299.95
2018-09-02T21:44:41.395Z,100304.60
2018-09-02T21:47:10.786Z,100300.09
2018-09-02T21:49:39.676Z,100298.25
2018-09-02T21:52:09.425Z,100298.63
2018-09-02T21:54:38.103Z,100300.45
2018-09-02T21:57:07.726Z,100293.86
2018-09-02T21:59:36.718Z,100289.34
2018-09-02T22:02:05.426Z,100290.08
2018-09-02T22:04:34.951Z,100289.81
2018-09-02T22:07:03.637Z,100283.36
2018-09-02T22:09:32.377Z,100289.71
2018-09-02T22:12:00.991Z,100283.23
2018-09-02T22:14:30.056Z,100285.30
2018-09-02T22:16:59.178Z,100284.69
2018-09-02T22:19:27.799Z,100283.36
2018-09-02T22:21:56.538Z,100288.91
2018-09-02T22:24:25.229Z,100293.04
2018-09-02T22:26:53.949Z,100290.25
2018-09-02T22:29:22.857Z,100283.52
2018-09-02T22:31:51.506Z,100285.45
2018-09-02T22:34:20.119Z,100279.23
2018-09-02T22:36:48.793Z,100278.23
2018-09-02T22:39:17.421Z,100276.27
2018-09-02T22:41:48.303Z,100277.13
2018-09-02T22:44:19.656Z,100285.41
2018-09-02T22:46:48.503Z,100286.61
2018-09-02T22:49:17.267Z,100288.55
2018-09-02T22:51:46.184Z,100292.58
2018-09-02T22:54:15.409Z,100290.23
2018-09-02T22:56:44.863Z,100284.58
2018-09-02T22:59:13.606Z,100285.44
2018-09-02T23:01:42.458Z,100283.95
2018-09-02T23:04:11.097Z,100286.19
2018-09-02T23:06:40.022Z,100276.91
2018-09-02T23:09:09.561Z,100275.53
2018-09-02T23:11:38.242Z,100270.02
2018-09-02T23:14:06.885Z,100268.78
2018-09-02T23:16:35.723Z,100256.68
2018-09-02T23:19:04.413Z,100262.75
2018-09-02T23:21:33.091Z,100262.95
2018-09-02T23:24:01.805Z,100259.64
2018-09-02T23:26:31.397Z,100252.04
2018-09-02T23:29:00.365Z,100249.09
2018-09-02T23:31:29.066Z,100247.64
2018-09-02T23:33:58.454Z,100247.53
2018-09-02T23:36:27.177Z,100244.37
2018-09-02T23:38:55.878Z,100243.25
2018-09-02T23:41:24.562Z,100243.73
2018-09-02T23:43:53.312Z,100240.36
2018-09-02T23:46:21.976Z,100239.77
2018-09-02T23:48:50.562Z,100243.30
2018-09-02T23:51:19.241Z,100245.87
2018-09-02T23:53:47.844Z,100232.47
2018-09-02T23:56:16.447Z,100240.51
2018-09-02T23:58:46.133Z,100242.81
